createdAt,value
2018-03-19T00:00:16.412Z,-3.05
2018-03-19T00:01:16.466Z,-3.05
2018-03-19T00:02:16.786Z,-3.07
2018-03-19T00:03:17.053Z,-3.05
2018-03-19T00:04:16.321Z,-3.07
2018-03-19T00:05:16.600Z,-3.10
2018-03-19T00:06:16.872Z,-3.10
2018-03-19T00:07:17.140Z,-3.10
2018-03-19T00:08:16.411Z,-3.13
2018-03-19T00:09:16.694Z,-3.11
2018-03-19T00:10:16.974Z,-3.11
2018-03-19T00:11:17.032Z,-3.11
2018-03-19T00:12:16.310Z,-3.08
2018-03-19T00:13:16.588Z,-3.02
2018-03-19T00:14:16.853Z,-3.07
2018-03-19T00:15:17.129Z,-3.07
2018-03-19T00:16:16.401Z,-3.05
2018-03-19T00:17:16.670Z,-3.05
2018-03-19T00:18:16.943Z,-3.02
2018-03-19T00:19:16.218Z,-3.00
2018-03-19T00:20:16.489Z,-3.03
2018-03-19T00:21:16.548Z,-3.10
2018-03-19T00:22:16.818Z,-3.10
2018-03-19T00:23:17.086Z,-3.05
2018-03-19T00:24:16.359Z,-3.03
2018-03-19T00:25:16.633Z,-3.07
2018-03-19T00:26:16.917Z,-3.07
2018-03-19T00:27:17.194Z,-3.08
2018-03-19T00:28:16.462Z,-3.11
2018-03-19T00:29:16.741Z,-3.13
2018-03-19T00:30:17.027Z,-3.13
2018-03-19T00:31:17.089Z,-3.13
2018-03-19T00:32:16.359Z,-3.10
2018-03-19T00:33:16.620Z,-3.10
2018-03-19T00:34:16.913Z,-3.10
2018-03-19T00:35:17.191Z,-3.08
2018-03-19T00:36:16.455Z,-3.08
2018-03-19T00:37:16.718Z,-3.11
2018-03-19T00:38:16.983Z,-3.13
2018-03-19T00:39:16.267Z,-3.08
2018-03-19T00:40:16.548Z,-3.08
2018-03-19T00:41:16.579Z,-3.13
2018-03-19T00:42:16.845Z,-3.10
2018-03-19T00:43:17.679Z,-3.11
2018-03-19T00:44:16.953Z,-3.08
2018-03-19T00:45:16.224Z,-3.08
2018-03-19T00:46:16.497Z,-3.10
2018-03-19T00:47:16.763Z,-3.10
2018-03-19T00:48:17.029Z,-3.10
2018-03-19T00:49:16.308Z,-3.13
2018-03-19T00:50:16.585Z,-3.15
2018-03-19T00:51:16.626Z,-3.15
2018-03-19T00:52:16.897Z,-3.17
2018-03-19T00:53:17.165Z,-3.17
2018-03-19T00:54:16.436Z,-3.14
2018-03-19T00:55:16.709Z,-3.14
2018-03-19T00:56:16.987Z,-3.07
2018-03-19T00:57:16.259Z,-3.13
2018-03-19T00:58:16.524Z,-3.11
2018-03-19T00:59:16.801Z,-3.14
2018-03-19T01:00:17.066Z,-3.13
2018-03-19T01:01:17.122Z,-3.15
2018-03-19T01:02:16.391Z,-3.14
2018-03-19T01:03:16.658Z,-3.17
2018-03-19T01:04:16.952Z,-3.15
2018-03-19T01:05:16.245Z,-3.13
2018-03-19T01:06:16.514Z,-3.15
2018-03-19T01:07:16.777Z,-3.21
2018-03-19T01:08:17.049Z,-3.13
2018-03-19T01:09:16.318Z,-3.15
2018-03-19T01:10:16.591Z,-3.17
2018-03-19T01:11:16.632Z,-3.07
2018-03-19T01:12:16.919Z,-3.11
2018-03-19T01:13:17.470Z,-3.11
2018-03-19T01:14:16.744Z,-3.10
2018-03-19T01:15:17.019Z,-3.13
2018-03-19T01:16:16.287Z,-3.14
2018-03-19T01:17:16.562Z,-3.15
2018-03-19T01:18:16.832Z,-3.17
2018-03-19T01:19:17.114Z,-3.17
2018-03-19T01:20:16.398Z,-3.15
2018-03-19T01:21:16.443Z,-3.08
2018-03-19T01:22:16.715Z,-3.14
2018-03-19T01:23:16.996Z,-3.11
2018-03-19T01:24:16.274Z,-3.08
2018-03-19T01:25:16.551Z,-3.14
2018-03-19T01:26:16.819Z,-3.17
2018-03-19T01:27:17.081Z,-3.13
2018-03-19T01:28:16.342Z,-3.18
2018-03-19T01:29:16.619Z,-3.22
2018-03-19T01:30:16.895Z,-3.22
2018-03-19T01:31:16.941Z,-3.17
2018-03-19T01:32:16.212Z,-3.20
2018-03-19T01:33:16.490Z,-3.21
2018-03-19T01:34:16.767Z,-3.21
2018-03-19T01:35:17.043Z,-3.25
2018-03-19T01:36:16.310Z,-3.28
2018-03-19T01:37:16.577Z,-3.31
2018-03-19T01:38:16.845Z,-3.28
2018-03-19T01:39:17.115Z,-3.26
2018-03-19T01:40:16.391Z,-3.25
2018-03-19T01:41:16.429Z,-3.25
2018-03-19T01:42:16.702Z,-3.22
2018-03-19T01:43:16.970Z,-3.24
2018-03-19T01:44:16.233Z,-3.24
2018-03-19T01:45:16.506Z,-3.24
2018-03-19T01:46:16.774Z,-3.25
2018-03-19T01:47:17.052Z,-3.25
2018-03-19T01:48:16.329Z,-3.25
2018-03-19T01:49:16.606Z,-3.20
2018-03-19T01:50:16.881Z,-3.20
2018-03-19T01:51:17.248Z,-3.17
2018-03-19T01:52:16.511Z,-3.24
2018-03-19T01:53:16.779Z,-3.25
2018-03-19T01:54:17.046Z,-3.26
2018-03-19T01:55:16.319Z,-3.31
2018-03-19T01:56:16.582Z,-3.35
2018-03-19T01:57:16.858Z,-3.36
2018-03-19T01:58:17.138Z,-3.39
2018-03-19T01:59:16.408Z,-3.36
2018-03-19T02:00:16.683Z,-3.35
2018-03-19T02:01:16.731Z,-3.35
2018-03-19T02:02:16.999Z,-3.35
2018-03-19T02:03:16.268Z,-3.32
2018-03-19T02:04:16.539Z,-3.35
2018-03-19T02:05:16.814Z,-3.33
2018-03-19T02:06:17.085Z,-3.41
2018-03-19T02:07:16.412Z,-3.41
2018-03-19T02:08:16.684Z,-3.32
2018-03-19T02:09:16.994Z,-3.29
2018-03-19T02:10:16.294Z,-3.27
2018-03-19T02:11:16.326Z,-3.31
2018-03-19T02:12:16.593Z,-3.33
2018-03-19T02:13:16.860Z,-3.36
2018-03-19T02:14:17.136Z,-3.39
2018-03-19T02:15:16.406Z,-3.36
2018-03-19T02:16:16.746Z,-3.39
2018-03-19T02:17:17.021Z,-3.36
2018-03-19T02:18:16.292Z,-3.40
2018-03-19T02:19:16.568Z,-3.44
2018-03-19T02:20:16.845Z,-3.41
2018-03-19T02:21:16.898Z,-3.40
2018-03-19T02:22:17.172Z,-3.39
2018-03-19T02:23:16.441Z,-3.33
2018-03-19T02:24:16.722Z,-3.39
2018-03-19T02:25:16.997Z,-3.43
2018-03-19T02:26:16.267Z,-3.47
2018-03-19T02:27:16.538Z,-3.44
2018-03-19T02:28:16.809Z,-3.44
2018-03-19T02:29:17.077Z,-3.47
2018-03-19T02:30:16.355Z,-3.48
2018-03-19T02:31:16.390Z,-3.48
2018-03-19T02:32:16.663Z,-3.47
2018-03-19T02:33:16.937Z,-3.47
2018-03-19T02:34:16.218Z,-3.46
2018-03-19T02:35:16.495Z,-3.47
2018-03-19T02:36:16.791Z,-3.46
2018-03-19T02:37:17.065Z,-3.46
2018-03-19T02:38:16.338Z,-3.46
2018-03-19T02:39:16.615Z,-3.47
2018-03-19T02:40:16.906Z,-3.39
2018-03-19T02:41:16.935Z,-3.44
2018-03-19T02:42:16.204Z,-3.43
2018-03-19T02:43:16.498Z,-3.41
2018-03-19T02:44:16.771Z,-3.45
2018-03-19T02:45:17.046Z,-3.47
2018-03-19T02:46:16.311Z,-3.45
2018-03-19T02:47:16.587Z,-3.51
2018-03-19T02:48:16.866Z,-3.53
2018-03-19T02:49:17.137Z,-3.57
2018-03-19T02:50:16.426Z,-3.54
2018-03-19T02:51:16.481Z,-3.54
2018-03-19T02:52:16.783Z,-3.57
2018-03-19T02:53:17.062Z,-3.55
2018-03-19T02:54:16.351Z,-3.48
2018-03-19T02:55:16.644Z,-3.53
2018-03-19T02:56:16.919Z,-3.54
2018-03-19T02:57:17.185Z,-3.58
2018-03-19T02:58:16.461Z,-3.54
2018-03-19T02:59:16.730Z,-3.57
2018-03-19T03:00:17.007Z,-3.55
2018-03-19T03:01:17.069Z,-3.54
2018-03-19T03:02:16.358Z,-3.50
2018-03-19T03:03:16.648Z,-3.55
2018-03-19T03:04:16.924Z,-3.57
2018-03-19T03:05:17.190Z,-3.50
2018-03-19T03:06:16.470Z,-3.58
2018-03-19T03:07:16.741Z,-3.58
2018-03-19T03:08:17.019Z,-3.57
2018-03-19T03:09:16.298Z,-3.46
2018-03-19T03:10:16.581Z,-3.46
2018-03-19T03:11:16.631Z,-3.45
2018-03-19T03:12:16.898Z,-3.53
2018-03-19T03:13:17.168Z,-3.55
2018-03-19T03:14:16.431Z,-3.62
2018-03-19T03:15:16.716Z,-3.64
2018-03-19T03:16:16.987Z,-3.62
2018-03-19T03:17:16.253Z,-3.62
2018-03-19T03:18:16.530Z,-3.64
2018-03-19T03:19:16.796Z,-3.57
2018-03-19T03:20:17.077Z,-3.61
2018-03-19T03:21:17.088Z,-3.62
2018-03-19T03:22:16.355Z,-3.59
2018-03-19T03:23:16.621Z,-3.59
2018-03-19T03:24:16.890Z,-3.58
2018-03-19T03:25:17.183Z,-3.58
2018-03-19T03:26:16.462Z,-3.59
2018-03-19T03:27:16.739Z,-3.59
2018-03-19T03:28:17.003Z,-3.59
2018-03-19T03:29:16.270Z,-3.58
2018-03-19T03:30:16.548Z,-3.51
2018-03-19T03:31:16.602Z,-3.58
2018-03-19T03:32:16.872Z,-3.62
2018-03-19T03:33:17.411Z,-3.55
2018-03-19T03:34:16.701Z,-3.55
2018-03-19T03:35:16.989Z,-3.55
2018-03-19T03:36:16.521Z,-3.55
2018-03-19T03:37:16.784Z,-3.54
2018-03-19T03:38:17.066Z,-3.57
2018-03-19T03:39:16.341Z,-3.55
2018-03-19T03:40:16.622Z,-3.51
2018-03-19T03:41:16.669Z,-3.46
2018-03-19T03:42:16.379Z,-3.48
2018-03-19T03:43:16.652Z,-3.50
2018-03-19T03:44:16.935Z,-3.52
2018-03-19T03:45:16.205Z,-3.45
2018-03-19T03:46:16.481Z,-3.45
2018-03-19T03:47:16.743Z,-3.55
2018-03-19T03:48:17.012Z,-3.53
2018-03-19T03:49:16.292Z,-3.52
2018-03-19T03:50:16.566Z,-3.61
2018-03-19T03:51:16.613Z,-3.58
2018-03-19T03:52:16.881Z,-3.61
2018-03-19T03:53:17.155Z,-3.61
2018-03-19T03:54:16.418Z,-3.59
2018-03-19T03:55:16.690Z,-3.61
2018-03-19T03:56:16.962Z,-3.59
2018-03-19T03:57:16.227Z,-3.59
2018-03-19T03:58:16.501Z,-3.66
2018-03-19T03:59:16.778Z,-3.68
2018-03-19T04:00:17.079Z,-3.66
2018-03-19T04:01:17.093Z,-3.68
2018-03-19T04:02:16.367Z,-3.65
2018-03-19T04:03:16.640Z,-3.65
2018-03-19T04:04:16.938Z,-3.62
2018-03-19T04:05:16.211Z,-3.64
2018-03-19T04:06:16.483Z,-3.64
2018-03-19T04:07:16.749Z,-3.66
2018-03-19T04:08:17.021Z,-3.69
2018-03-19T04:09:16.294Z,-3.59
2018-03-19T04:10:16.571Z,-3.65
2018-03-19T04:11:16.616Z,-3.58
2018-03-19T04:12:16.893Z,-3.58
2018-03-19T04:13:17.176Z,-3.59
2018-03-19T04:14:16.449Z,-3.64
2018-03-19T04:15:16.721Z,-3.64
2018-03-19T04:16:16.993Z,-3.65
2018-03-19T04:17:16.266Z,-3.65
2018-03-19T04:18:16.543Z,-3.57
2018-03-19T04:19:16.816Z,-3.62
2018-03-19T04:20:17.095Z,-3.58
2018-03-19T04:21:17.129Z,-3.58
2018-03-19T04:22:16.405Z,-3.64
2018-03-19T04:23:16.678Z,-3.64
2018-03-19T04:24:17.015Z,-3.64
2018-03-19T04:25:16.324Z,-3.64
2018-03-19T04:26:16.599Z,-3.64
2018-03-19T04:27:16.867Z,-3.68
2018-03-19T04:28:17.133Z,-3.64
2018-03-19T04:29:16.406Z,-3.68
2018-03-19T04:30:16.680Z,-3.66
2018-03-19T04:31:16.706Z,-3.70
2018-03-19T04:32:16.982Z,-3.70
2018-03-19T04:33:16.247Z,-3.79
2018-03-19T04:34:16.517Z,-3.77
2018-03-19T04:35:16.797Z,-3.73
2018-03-19T04:36:17.183Z,-3.73
2018-03-19T04:37:16.458Z,-3.74
2018-03-19T04:38:16.723Z,-3.74
2018-03-19T04:39:16.992Z,-3.73
2018-03-19T04:40:16.266Z,-3.76
2018-03-19T04:41:16.320Z,-3.76
2018-03-19T04:42:16.609Z,-3.70
2018-03-19T04:43:16.874Z,-3.70
2018-03-19T04:44:17.139Z,-3.64
2018-03-19T04:45:16.402Z,-3.70
2018-03-19T04:46:16.678Z,-3.69
2018-03-19T04:47:16.951Z,-3.77
2018-03-19T04:48:16.221Z,-3.76
2018-03-19T04:49:16.490Z,-3.76
2018-03-19T04:50:16.762Z,-3.79
2018-03-19T04:51:16.812Z,-3.79
2018-03-19T04:52:17.086Z,-3.80
2018-03-19T04:53:16.355Z,-3.80
2018-03-19T04:54:16.619Z,-3.80
2018-03-19T04:55:16.883Z,-3.87
2018-03-19T04:56:17.150Z,-3.86
2018-03-19T04:57:16.417Z,-3.86
2018-03-19T04:58:16.694Z,-3.88
2018-03-19T04:59:16.959Z,-3.90
2018-03-19T05:00:16.238Z,-3.95
2018-03-19T05:01:16.289Z,-3.94
2018-03-19T05:02:16.562Z,-3.91
2018-03-19T05:03:16.822Z,-3.90
2018-03-19T05:04:17.089Z,-3.91
2018-03-19T05:05:16.359Z,-3.91
2018-03-19T05:06:16.635Z,-3.90
2018-03-19T05:07:16.909Z,-3.97
2018-03-19T05:08:17.191Z,-3.98
2018-03-19T05:09:16.458Z,-3.87
2018-03-19T05:10:16.735Z,-3.95
2018-03-19T05:11:16.804Z,-3.95
2018-03-19T05:12:16.240Z,-3.97
2018-03-19T05:13:16.522Z,-3.95
2018-03-19T05:14:17.094Z,-3.97
2018-03-19T05:15:16.371Z,-3.94
2018-03-19T05:16:16.639Z,-3.91
2018-03-19T05:17:16.902Z,-3.86
2018-03-19T05:18:17.181Z,-3.83
2018-03-19T05:19:16.446Z,-3.87
2018-03-19T05:20:16.714Z,-3.83
2018-03-19T05:21:16.756Z,-3.87
2018-03-19T05:22:17.020Z,-3.90
2018-03-19T05:23:16.298Z,-3.83
2018-03-19T05:24:16.878Z,-3.90
2018-03-19T05:25:17.146Z,-3.99
2018-03-19T05:26:16.427Z,-4.06
2018-03-19T05:27:16.694Z,-4.06
2018-03-19T05:28:16.960Z,-4.10
2018-03-19T05:29:16.229Z,-4.14
2018-03-19T05:30:16.507Z,-4.13
2018-03-19T05:31:16.543Z,-4.10
2018-03-19T05:32:16.801Z,-4.06
2018-03-19T05:33:17.063Z,-4.06
2018-03-19T05:34:16.328Z,-4.10
2018-03-19T05:35:16.605Z,-4.14
2018-03-19T05:36:16.885Z,-4.07
2018-03-19T05:37:17.159Z,-4.07
2018-03-19T05:38:16.425Z,-4.10
2018-03-19T05:39:16.705Z,-4.06
2018-03-19T05:40:17.003Z,-4.01
2018-03-19T05:41:17.025Z,-4.02
2018-03-19T05:42:16.307Z,-4.06
2018-03-19T05:43:16.586Z,-3.99
2018-03-19T05:44:16.863Z,-4.01
2018-03-19T05:45:17.145Z,-3.92
2018-03-19T05:46:16.429Z,-3.98
2018-03-19T05:47:16.706Z,-3.95
2018-03-19T05:48:16.973Z,-3.98
2018-03-19T05:49:16.246Z,-3.97
2018-03-19T05:50:16.526Z,-4.08
2018-03-19T05:51:16.562Z,-4.08
2018-03-19T05:52:16.832Z,-4.10
2018-03-19T05:53:17.115Z,-4.02
2018-03-19T05:54:16.400Z,-4.01
2018-03-19T05:55:16.677Z,-4.07
2018-03-19T05:56:16.940Z,-4.07
2018-03-19T05:57:16.213Z,-3.98
2018-03-19T05:58:16.478Z,-3.99
2018-03-19T05:59:16.755Z,-4.06
2018-03-19T06:00:17.042Z,-4.06
2018-03-19T06:01:17.090Z,-3.99
2018-03-19T06:02:16.365Z,-4.02
2018-03-19T06:03:16.633Z,-4.07
2018-03-19T06:04:16.902Z,-4.25
2018-03-19T06:05:17.183Z,-4.26
2018-03-19T06:06:16.450Z,-4.26
2018-03-19T06:07:16.723Z,-4.33
2018-03-19T06:08:16.995Z,-4.32
2018-03-19T06:09:16.259Z,-4.28
2018-03-19T06:10:16.540Z,-4.31
2018-03-19T06:11:16.580Z,-4.31
2018-03-19T06:12:16.851Z,-4.28
2018-03-19T06:13:17.122Z,-4.33
2018-03-19T06:14:16.383Z,-4.36
2018-03-19T06:15:16.669Z,-4.25
2018-03-19T06:16:16.944Z,-4.25
2018-03-19T06:17:16.220Z,-4.26
2018-03-19T06:18:16.495Z,-4.28
2018-03-19T06:19:16.772Z,-4.36
2018-03-19T06:20:17.055Z,-4.25
2018-03-19T06:21:17.095Z,-4.24
2018-03-19T06:22:16.355Z,-4.28
2018-03-19T06:23:16.624Z,-4.18
2018-03-19T06:24:16.906Z,-4.18
2018-03-19T06:25:17.174Z,-4.25
2018-03-19T06:26:16.441Z,-4.33
2018-03-19T06:27:16.709Z,-4.31
2018-03-19T06:28:16.975Z,-4.26
2018-03-19T06:29:16.238Z,-4.17
2018-03-19T06:30:16.509Z,-3.97
2018-03-19T06:31:16.584Z,-4.15
2018-03-19T06:32:16.866Z,-4.17
2018-03-19T06:33:17.131Z,-4.33
2018-03-19T06:34:16.400Z,-4.22
2018-03-19T06:35:16.683Z,-4.24
2018-03-19T06:36:16.968Z,-4.18
2018-03-19T06:37:16.241Z,-4.18
2018-03-19T06:38:16.505Z,-4.11
2018-03-19T06:39:16.778Z,-4.08
2018-03-19T06:40:17.043Z,-4.02
2018-03-19T06:41:17.096Z,-4.25
2018-03-19T06:42:16.370Z,-4.22
2018-03-19T06:43:16.641Z,-4.24
2018-03-19T06:44:16.909Z,-4.32
2018-03-19T06:45:17.185Z,-4.47
2018-03-19T06:46:16.454Z,-4.40
2018-03-19T06:47:16.775Z,-4.24
2018-03-19T06:48:17.077Z,-4.39
2018-03-19T06:49:16.347Z,-4.39
2018-03-19T06:50:16.632Z,-4.29
2018-03-19T06:51:16.671Z,-4.31
2018-03-19T06:52:16.933Z,-4.28
2018-03-19T06:53:17.204Z,-4.28
2018-03-19T06:54:16.470Z,-4.33
2018-03-19T06:55:16.732Z,-4.31
2018-03-19T06:56:16.997Z,-4.43
2018-03-19T06:57:16.266Z,-4.51
2018-03-19T06:58:16.523Z,-4.51
2018-03-19T06:59:16.805Z,-4.44
2018-03-19T07:00:17.094Z,-4.50
2018-03-19T07:01:17.440Z,-4.51
2018-03-19T07:02:16.727Z,-4.43
2018-03-19T07:03:16.992Z,-4.46
2018-03-19T07:04:16.270Z,-4.44
2018-03-19T07:05:16.541Z,-4.39
2018-03-19T07:06:16.820Z,-4.39
2018-03-19T07:07:17.124Z,-4.43
2018-03-19T07:08:16.390Z,-4.41
2018-03-19T07:09:16.669Z,-4.33
2018-03-19T07:10:16.942Z,-4.43
2018-03-19T07:11:16.987Z,-4.39
2018-03-19T07:12:16.526Z,-4.46
2018-03-19T07:13:16.796Z,-4.41
2018-03-19T07:14:17.073Z,-4.46
2018-03-19T07:15:16.337Z,-4.41
2018-03-19T07:16:16.604Z,-4.46
2018-03-19T07:17:16.965Z,-4.40
2018-03-19T07:18:16.289Z,-4.28
2018-03-19T07:19:16.562Z,-4.11
2018-03-19T07:20:16.838Z,-4.36
2018-03-19T07:21:16.881Z,-4.37
2018-03-19T07:22:17.158Z,-4.39
2018-03-19T07:23:16.441Z,-4.24
2018-03-19T07:24:16.700Z,-4.24
2018-03-19T07:25:16.969Z,-4.36
2018-03-19T07:26:16.233Z,-4.22
2018-03-19T07:27:16.501Z,-4.13
2018-03-19T07:28:16.768Z,-4.22
2018-03-19T07:29:17.038Z,-4.14
2018-03-19T07:30:16.309Z,-4.18
2018-03-19T07:31:16.357Z,-4.22
2018-03-19T07:32:16.627Z,-4.19
2018-03-19T07:33:16.897Z,-4.26
2018-03-19T07:34:17.160Z,-4.06
2018-03-19T07:35:16.435Z,-3.87
2018-03-19T07:36:16.694Z,-3.95
2018-03-19T07:37:16.964Z,-3.99
2018-03-19T07:38:16.233Z,-3.92
2018-03-19T07:39:16.503Z,-4.02
2018-03-19T07:40:16.781Z,-3.94
2018-03-19T07:41:16.825Z,-3.90
2018-03-19T07:42:17.113Z,-3.99
2018-03-19T07:43:16.381Z,-3.77
2018-03-19T07:44:16.653Z,-3.41
2018-03-19T07:45:16.922Z,-4.01
2018-03-19T07:46:17.194Z,-3.81
2018-03-19T07:47:16.465Z,-3.77
2018-03-19T07:48:16.729Z,-3.95
2018-03-19T07:49:17.011Z,-3.66
2018-03-19T07:50:16.296Z,-3.61
2018-03-19T07:51:16.335Z,-3.72
2018-03-19T07:52:16.607Z,-3.84
2018-03-19T07:53:16.873Z,-3.97
2018-03-19T07:54:17.148Z,-3.69
2018-03-19T07:55:16.421Z,-3.53
2018-03-19T07:56:16.696Z,-3.79
2018-03-19T07:57:17.019Z,-3.66
2018-03-19T07:58:16.338Z,-3.65
2018-03-19T07:59:16.613Z,-3.32
2018-03-19T08:00:16.902Z,-3.25
2018-03-19T08:01:16.943Z,-3.44
2018-03-19T08:02:16.213Z,-3.24
2018-03-19T08:03:16.490Z,-3.46
2018-03-19T08:04:16.759Z,-2.95
2018-03-19T08:05:17.029Z,-3.41
2018-03-19T08:06:16.312Z,-3.15
2018-03-19T08:07:16.579Z,-3.13
2018-03-19T08:08:16.863Z,-2.91
2018-03-19T08:09:17.135Z,-3.41
2018-03-19T08:10:16.412Z,-3.02
2018-03-19T08:11:16.444Z,-2.98
2018-03-19T08:12:16.786Z,-2.75
2018-03-19T08:13:17.087Z,-2.83
2018-03-19T08:14:16.364Z,-2.70
2018-03-19T08:15:16.635Z,-2.64
2018-03-19T08:16:16.914Z,-2.58
2018-03-19T08:17:17.189Z,-2.58
2018-03-19T08:18:16.467Z,-2.64
2018-03-19T08:19:16.736Z,-2.58
2018-03-19T08:20:17.013Z,-2.45
2018-03-19T08:21:17.075Z,-2.33
2018-03-19T08:22:16.356Z,-2.39
2018-03-19T08:23:16.630Z,-2.45
2018-03-19T08:24:16.895Z,-2.33
2018-03-19T08:25:17.167Z,-2.20
2018-03-19T08:26:16.432Z,-2.32
2018-03-19T08:27:16.698Z,-2.14
2018-03-19T08:28:16.966Z,-2.14
2018-03-19T08:29:16.243Z,-2.14
2018-03-19T08:30:16.514Z,-2.27
2018-03-19T08:31:16.563Z,-2.20
2018-03-19T08:32:16.824Z,-2.14
2018-03-19T08:33:17.100Z,-2.45
2018-03-19T08:34:16.368Z,-2.45
2018-03-19T08:35:16.636Z,-2.52
2018-03-19T08:36:16.902Z,-2.58
2018-03-19T08:37:17.167Z,-2.45
2018-03-19T08:38:16.435Z,-2.64
2018-03-19T08:39:16.701Z,-2.52
2018-03-19T08:40:16.979Z,-2.52
2018-03-19T08:41:17.019Z,-2.45
2018-03-19T08:42:16.286Z,-2.58
2018-03-19T08:43:16.568Z,-2.58
2018-03-19T08:44:16.882Z,-2.39
2018-03-19T08:45:17.155Z,-2.45
2018-03-19T08:46:16.439Z,-2.39
2018-03-19T08:47:16.725Z,-2.83
2018-03-19T08:48:16.998Z,-2.64
2018-03-19T08:49:16.270Z,-2.58
2018-03-19T08:50:16.556Z,-2.70
2018-03-19T08:51:16.588Z,-2.52
2018-03-19T08:52:16.857Z,-2.70
2018-03-19T08:53:17.128Z,-2.64
2018-03-19T08:54:16.411Z,-2.58
2018-03-19T08:55:16.682Z,-2.58
2018-03-19T08:56:16.955Z,-2.64
2018-03-19T08:57:16.228Z,-2.64
2018-03-19T08:58:16.491Z,-2.77
2018-03-19T08:59:16.758Z,-2.58
2018-03-19T09:00:17.048Z,-2.52
2018-03-19T09:01:17.087Z,-2.52
2018-03-19T09:02:16.357Z,-2.45
2018-03-19T09:03:16.632Z,-2.45
2018-03-19T09:04:16.907Z,-2.45
2018-03-19T09:05:17.198Z,-2.77
2018-03-19T09:06:16.473Z,-2.70
2018-03-19T09:07:16.770Z,-2.70
2018-03-19T09:08:17.144Z,-2.64
2018-03-19T09:09:16.414Z,-2.58
2018-03-19T09:10:16.687Z,-2.52
2018-03-19T09:11:16.733Z,-2.64
2018-03-19T09:12:17.004Z,-2.52
2018-03-19T09:13:16.278Z,-2.39
2018-03-19T09:14:16.542Z,-2.52
2018-03-19T09:15:16.805Z,-2.64
2018-03-19T09:16:17.078Z,-2.64
2018-03-19T09:17:16.352Z,-2.77
2018-03-19T09:18:16.625Z,-2.64
2018-03-19T09:19:16.899Z,-2.52
2018-03-19T09:20:17.165Z,-2.45
2018-03-19T09:21:16.226Z,-2.33
2018-03-19T09:22:16.498Z,-2.02
2018-03-19T09:23:16.761Z,-1.83
2018-03-19T09:24:17.028Z,-2.08
2018-03-19T09:25:16.304Z,-2.02
2018-03-19T09:26:16.570Z,-1.95
2018-03-19T09:27:16.838Z,-1.89
2018-03-19T09:28:17.114Z,-1.77
2018-03-19T09:29:16.381Z,-1.64
2018-03-19T09:30:16.670Z,-1.70
2018-03-19T09:31:16.733Z,-1.89
2018-03-19T09:32:17.081Z,-2.08
2018-03-19T09:33:16.352Z,-2.14
2018-03-19T09:34:16.639Z,-2.08
2018-03-19T09:35:16.946Z,-1.95
2018-03-19T09:36:16.253Z,-1.77
2018-03-19T09:37:16.525Z,-1.83
2018-03-19T09:38:16.814Z,-1.77
2018-03-19T09:39:17.083Z,-1.64
2018-03-19T09:40:16.363Z,-1.58
2018-03-19T09:41:16.398Z,-1.77
2018-03-19T09:42:16.657Z,-1.95
2018-03-19T09:43:16.922Z,-2.08
2018-03-19T09:44:17.187Z,-2.14
2018-03-19T09:45:16.463Z,-2.08
2018-03-19T09:46:16.730Z,-2.14
2018-03-19T09:47:16.999Z,-2.14
2018-03-19T09:48:16.339Z,-2.20
2018-03-19T09:49:16.633Z,-2.08
2018-03-19T09:50:16.906Z,-1.95
2018-03-19T09:51:16.930Z,-1.70
2018-03-19T09:52:16.206Z,-1.64
2018-03-19T09:53:16.479Z,-1.89
2018-03-19T09:54:16.746Z,-1.77
2018-03-19T09:55:17.011Z,-1.83
2018-03-19T09:56:16.270Z,-1.77
2018-03-19T09:57:16.548Z,-1.70
2018-03-19T09:58:16.814Z,-1.45
2018-03-19T09:59:17.085Z,-1.45
2018-03-19T10:00:16.365Z,-1.45
2018-03-19T10:01:16.394Z,-1.45
2018-03-19T10:02:16.676Z,-1.70
2018-03-19T10:03:16.943Z,-1.39
2018-03-19T10:04:16.213Z,-1.45
2018-03-19T10:05:16.536Z,-1.89
2018-03-19T10:06:16.807Z,-1.77
2018-03-19T10:07:17.078Z,-1.77
2018-03-19T10:08:16.351Z,-1.83
2018-03-19T10:09:16.623Z,-1.70
2018-03-19T10:10:16.954Z,-1.64
2018-03-19T10:11:16.968Z,-1.33
2018-03-19T10:12:16.234Z,-1.52
2018-03-19T10:13:16.504Z,-1.33
2018-03-19T10:14:16.831Z,-1.33
2018-03-19T10:15:17.103Z,-1.27
2018-03-19T10:16:16.417Z,-1.27
2018-03-19T10:17:16.702Z,-1.39
2018-03-19T10:18:16.973Z,-1.52
2018-03-19T10:19:16.244Z,-1.27
2018-03-19T10:20:16.523Z,-1.08
2018-03-19T10:21:16.571Z,-0.95
2018-03-19T10:22:16.842Z,-1.08
2018-03-19T10:23:17.114Z,-1.14
2018-03-19T10:24:16.385Z,-1.33
2018-03-19T10:25:16.664Z,-1.45
2018-03-19T10:26:16.941Z,-1.45
2018-03-19T10:27:16.220Z,-1.39
2018-03-19T10:28:16.482Z,-1.27
2018-03-19T10:29:16.742Z,-1.33
2018-03-19T10:30:17.005Z,-1.39
2018-03-19T10:31:17.044Z,-1.39
2018-03-19T10:32:16.316Z,-1.27
2018-03-19T10:33:16.586Z,-1.08
2018-03-19T10:34:17.019Z,-1.39
2018-03-19T10:35:16.295Z,-1.70
2018-03-19T10:36:16.579Z,-1.52
2018-03-19T10:37:16.860Z,-1.39
2018-03-19T10:38:17.138Z,-1.39
2018-03-19T10:39:16.411Z,-1.33
2018-03-19T10:40:16.692Z,-1.14
2018-03-19T10:41:16.721Z,-0.95
2018-03-19T10:42:16.996Z,-0.95
2018-03-19T10:43:16.264Z,-0.83
2018-03-19T10:44:16.547Z,-0.83
2018-03-19T10:45:16.822Z,-0.77
2018-03-19T10:46:17.091Z,-1.14
2018-03-19T10:47:16.362Z,-1.08
2018-03-19T10:48:16.631Z,-1.08
2018-03-19T10:49:16.899Z,-1.08
2018-03-19T10:50:16.221Z,-1.08
2018-03-19T10:51:16.269Z,-1.14
2018-03-19T10:52:16.533Z,-1.08
2018-03-19T10:53:16.801Z,-1.08
2018-03-19T10:54:17.065Z,-0.77
2018-03-19T10:55:16.334Z,-0.83
2018-03-19T10:56:16.600Z,-0.89
2018-03-19T10:57:16.872Z,-1.02
2018-03-19T10:58:17.149Z,-1.08
2018-03-19T10:59:16.422Z,-1.14
2018-03-19T11:00:16.705Z,-1.20
2018-03-19T11:01:16.803Z,-1.20
2018-03-19T11:02:17.129Z,-0.89
2018-03-19T11:03:16.406Z,-0.83
2018-03-19T11:04:16.679Z,-1.02
2018-03-19T11:05:16.948Z,-1.02
2018-03-19T11:06:16.227Z,-0.83
2018-03-19T11:07:16.488Z,-0.89
2018-03-19T11:08:16.766Z,-0.89
2018-03-19T11:09:17.034Z,-1.02
2018-03-19T11:10:16.306Z,-1.08
2018-03-19T11:11:16.334Z,-1.02
2018-03-19T11:12:16.673Z,-0.89
2018-03-19T11:13:17.160Z,-0.77
2018-03-19T11:14:16.430Z,-0.64
2018-03-19T11:15:16.967Z,-0.77
2018-03-19T11:16:16.242Z,-0.64
2018-03-19T11:17:16.515Z,-0.58
2018-03-19T11:18:16.781Z,-0.27
2018-03-19T11:19:17.054Z,-0.02
2018-03-19T11:20:16.343Z,-0.02
2018-03-19T11:21:16.379Z,-0.45
2018-03-19T11:22:16.654Z,-0.52
2018-03-19T11:23:16.938Z,-0.58
2018-03-19T11:24:16.218Z,-0.83
2018-03-19T11:25:16.492Z,-0.89
2018-03-19T11:26:16.763Z,-0.95
2018-03-19T11:27:17.028Z,-0.89
2018-03-19T11:28:16.301Z,-0.64
2018-03-19T11:29:16.573Z,-0.58
2018-03-19T11:30:16.846Z,-0.77
2018-03-19T11:31:16.894Z,-0.64
2018-03-19T11:32:17.178Z,-0.27
2018-03-19T11:33:16.446Z,-0.39
2018-03-19T11:34:16.718Z,-0.45
2018-03-19T11:35:16.983Z,-0.52
2018-03-19T11:36:16.256Z,-0.33
2018-03-19T11:37:16.519Z,-0.27
2018-03-19T11:38:16.801Z,-0.33
2018-03-19T11:39:17.202Z,-0.45
2018-03-19T11:40:16.477Z,-0.39
2018-03-19T11:41:16.533Z,-0.33
2018-03-19T11:42:16.808Z,-0.27
2018-03-19T11:43:17.077Z,-0.02
2018-03-19T11:44:16.352Z,0.05
2018-03-19T11:45:16.617Z,-0.02
2018-03-19T11:46:16.906Z,-0.14
2018-03-19T11:47:17.463Z,-0.20
2018-03-19T11:48:16.787Z,-0.20
2018-03-19T11:49:17.059Z,-0.14
2018-03-19T11:50:16.333Z,-0.08
2018-03-19T11:51:16.358Z,-0.08
2018-03-19T11:52:16.617Z,0.05
2018-03-19T11:53:16.892Z,0.17
2018-03-19T11:54:17.149Z,0.23
2018-03-19T11:55:16.413Z,0.42
2018-03-19T11:56:16.686Z,0.36
2018-03-19T11:57:16.957Z,0.11
2018-03-19T11:58:16.235Z,-0.08
2018-03-19T11:59:16.501Z,-0.02
2018-03-19T12:00:16.783Z,0.17
2018-03-19T12:01:16.843Z,0.30
2018-03-19T12:02:17.118Z,0.05
2018-03-19T12:03:16.384Z,-0.39
2018-03-19T12:04:16.649Z,-0.20
2018-03-19T12:05:16.918Z,-0.20
2018-03-19T12:06:17.187Z,-0.20
2018-03-19T12:07:16.460Z,-0.14
2018-03-19T12:08:16.736Z,0.11
2018-03-19T12:09:17.014Z,0.23
2018-03-19T12:10:16.298Z,0.42
2018-03-19T12:11:16.331Z,0.36
2018-03-19T12:12:16.638Z,0.23
2018-03-19T12:13:16.943Z,0.17
2018-03-19T12:14:16.219Z,0.23
2018-03-19T12:15:16.500Z,0.17
2018-03-19T12:16:16.765Z,0.30
2018-03-19T12:17:17.032Z,0.23
2018-03-19T12:18:16.296Z,0.23
2018-03-19T12:19:16.559Z,0.23
2018-03-19T12:20:16.830Z,-0.02
2018-03-19T12:21:16.868Z,-0.02
2018-03-19T12:22:17.139Z,-0.08
2018-03-19T12:23:16.409Z,-0.02
2018-03-19T12:24:16.675Z,0.11
2018-03-19T12:25:16.943Z,0.23
2018-03-19T12:26:16.214Z,0.30
2018-03-19T12:27:16.478Z,0.36
2018-03-19T12:28:16.757Z,0.36
2018-03-19T12:29:17.019Z,0.48
2018-03-19T12:30:16.298Z,0.73
2018-03-19T12:31:16.334Z,0.36
2018-03-19T12:32:16.607Z,-0.02
2018-03-19T12:33:16.876Z,0.11
2018-03-19T12:34:17.152Z,0.17
2018-03-19T12:35:16.430Z,0.42
2018-03-19T12:36:16.705Z,0.42
2018-03-19T12:37:16.976Z,0.48
2018-03-19T12:38:16.239Z,0.50
2018-03-19T12:39:16.509Z,0.62
2018-03-19T12:40:16.778Z,0.83
2018-03-19T12:41:16.834Z,0.73
2018-03-19T12:42:17.111Z,0.73
2018-03-19T12:43:16.382Z,0.61
2018-03-19T12:44:16.654Z,0.55
2018-03-19T12:45:16.934Z,0.42
2018-03-19T12:46:16.203Z,0.55
2018-03-19T12:47:16.467Z,0.55
2018-03-19T12:48:16.734Z,0.55
2018-03-19T12:49:17.012Z,0.80
2018-03-19T12:50:16.285Z,0.62
2018-03-19T12:51:16.347Z,0.53
2018-03-19T12:52:16.619Z,0.57
2018-03-19T12:53:16.894Z,0.55
2018-03-19T12:54:17.158Z,0.52